sensor_id;sensor_type;location;lat;lon;timestamp;P1;durP1;ratioP1;P2;durP2;ratioP2
28802;SDS011;15949;55.656;37.422;2024-02-26T00:03:54;7.93;;;3.75;;
28802;SDS011;15949;55.656;37.422;2024-02-26T00:09:04;12.63;;;4.32;;
28802;SDS011;15949;55.656;37.422;2024-02-26T00:14:11;9.77;;;4.47;;
28802;SDS011;15949;55.656;37.422;2024-02-26T00:19:20;7.28;;;4.05;;
28802;SDS011;15949;55.656;37.422;2024-02-26T00:24:26;8.87;;;4.60;;
28802;SDS011;15949;55.656;37.422;2024-02-26T00:29:32;9.35;;;4.10;;
28802;SDS011;15949;55.656;37.422;2024-02-26T00:34:37;8.18;;;4.20;;
28802;SDS011;15949;55.656;37.422;2024-02-26T00:39:43;8.32;;;4.25;;
28802;SDS011;15949;55.656;37.422;2024-02-26T00:44:50;8.43;;;4.85;;
28802;SDS011;15949;55.656;37.422;2024-02-26T00:49:56;7.15;;;3.90;;
28802;SDS011;15949;55.656;37.422;2024-02-26T00:55:02;8.95;;;4.40;;
28802;SDS011;15949;55.656;37.422;2024-02-26T01:00:11;11.32;;;4.25;;
28802;SDS011;15949;55.656;37.422;2024-02-26T01:05:17;7.78;;;4.35;;
28802;SDS011;15949;55.656;37.422;2024-02-26T01:10:23;10.07;;;4.32;;
28802;SDS011;15949;55.656;37.422;2024-02-26T01:15:29;7.82;;;4.22;;
28802;SDS011;15949;55.656;37.422;2024-02-26T01:20:35;9.30;;;3.90;;
28802;SDS011;15949;55.656;37.422;2024-02-26T01:25:41;9.85;;;4.03;;
28802;SDS011;15949;55.656;37.422;2024-02-26T01:30:48;7.65;;;4.10;;
28802;SDS011;15949;55.656;37.422;2024-02-26T01:35:54;9.13;;;4.32;;
28802;SDS011;15949;55.656;37.422;2024-02-26T01:41:08;7.32;;;3.92;;
28802;SDS011;15949;55.656;37.422;2024-02-26T01:46:14;8.93;;;4.15;;
28802;SDS011;15949;55.656;37.422;2024-02-26T01:51:21;6.40;;;3.42;;
28802;SDS011;15949;55.656;37.422;2024-02-26T01:56:28;6.32;;;3.83;;
28802;SDS011;15949;55.656;37.422;2024-02-26T02:01:37;8.85;;;3.60;;
28802;SDS011;15949;55.656;37.422;2024-02-26T02:06:53;10.63;;;3.90;;
28802;SDS011;15949;55.656;37.422;2024-02-26T02:11:59;11.05;;;3.80;;
28802;SDS011;15949;55.656;37.422;2024-02-26T02:17:05;16.90;;;4.93;;
28802;SDS011;15949;55.656;37.422;2024-02-26T02:22:11;10.50;;;3.30;;
28802;SDS011;15949;55.656;37.422;2024-02-26T02:27:17;6.43;;;3.10;;
28802;SDS011;15949;55.656;37.422;2024-02-26T03:29:40;7.80;;;3.15;;
28802;SDS011;15949;55.656;37.422;2024-02-26T03:34:48;6.15;;;3.00;;
28802;SDS011;15949;55.656;37.422;2024-02-26T03:39:54;9.13;;;3.70;;
28802;SDS011;15949;55.656;37.422;2024-02-26T03:45:00;6.53;;;3.40;;
28802;SDS011;15949;55.656;37.422;2024-02-26T03:50:06;7.72;;;3.35;;
28802;SDS011;15949;55.656;37.422;2024-02-26T03:55:12;6.85;;;3.25;;
28802;SDS011;15949;55.656;37.422;2024-02-26T04:00:18;9.43;;;3.40;;
28802;SDS011;15949;55.656;37.422;2024-02-26T04:05:24;7.97;;;3.33;;
28802;SDS011;15949;55.656;37.422;2024-02-26T04:10:33;7.22;;;3.38;;
28802;SDS011;15949;55.656;37.422;2024-02-26T04:15:44;5.53;;;3.10;;
28802;SDS011;15949;55.656;37.422;2024-02-26T04:20:50;8.05;;;3.38;;
28802;SDS011;15949;55.656;37.422;2024-02-26T04:25:56;8.60;;;3.15;;
28802;SDS011;15949;55.656;37.422;2024-02-26T04:31:02;11.77;;;3.78;;
28802;SDS011;15949;55.656;37.422;2024-02-26T04:36:12;11.25;;;3.47;;
28802;SDS011;15949;55.656;37.422;2024-02-26T04:41:22;8.23;;;3.92;;
28802;SDS011;15949;55.656;37.422;2024-02-26T04:46:27;8.88;;;4.20;;
28802;SDS011;15949;55.656;37.422;2024-02-26T04:51:33;9.50;;;4.40;;
28802;SDS011;15949;55.656;37.422;2024-02-26T04:56:39;7.43;;;4.15;;
28802;SDS011;15949;55.656;37.422;2024-02-26T05:01:45;13.63;;;4.80;;
28802;SDS011;15949;55.656;37.422;2024-02-26T05:06:51;9.73;;;4.13;;
28802;SDS011;15949;55.656;37.422;2024-02-26T05:11:59;5.88;;;4.05;;
28802;SDS011;15949;55.656;37.422;2024-02-26T05:17:05;9.23;;;4.28;;
28802;SDS011;15949;55.656;37.422;2024-02-26T05:22:11;10.50;;;4.88;;
28802;SDS011;15949;55.656;37.422;2024-02-26T06:30:26;11.35;;;5.63;;
28802;SDS011;15949;55.656;37.422;2024-02-26T06:35:32;10.77;;;5.95;;
28802;SDS011;15949;55.656;37.422;2024-02-26T06:40:40;12.18;;;5.60;;
28802;SDS011;15949;55.656;37.422;2024-02-26T06:45:45;11.27;;;5.57;;
28802;SDS011;15949;55.656;37.422;2024-02-26T06:50:51;14.20;;;5.32;;
28802;SDS011;15949;55.656;37.422;2024-02-26T06:56:00;13.98;;;5.78;;
28802;SDS011;15949;55.656;37.422;2024-02-26T07:01:05;13.20;;;6.40;;
28802;SDS011;15949;55.656;37.422;2024-02-26T07:06:13;10.38;;;6.05;;
28802;SDS011;15949;55.656;37.422;2024-02-26T07:11:19;12.05;;;5.78;;
28802;SDS011;15949;55.656;37.422;2024-02-26T07:16:25;15.73;;;6.43;;
28802;SDS011;15949;55.656;37.422;2024-02-26T07:21:32;16.85;;;6.50;;
28802;SDS011;15949;55.656;37.422;2024-02-26T07:26:39;14.18;;;5.75;;
28802;SDS011;15949;55.656;37.422;2024-02-26T07:31:45;16.02;;;5.90;;
28802;SDS011;15949;55.656;37.422;2024-02-26T07:36:51;13.23;;;6.13;;
28802;SDS011;15949;55.656;37.422;2024-02-26T07:41:59;17.58;;;6.28;;
28802;SDS011;15949;55.656;37.422;2024-02-26T07:47:05;14.23;;;6.45;;
28802;SDS011;15949;55.656;37.422;2024-02-26T07:52:11;15.25;;;5.60;;
28802;SDS011;15949;55.656;37.422;2024-02-26T07:57:17;13.70;;;6.13;;
28802;SDS011;15949;55.656;37.422;2024-02-26T08:02:23;11.73;;;5.80;;
28802;SDS011;15949;55.656;37.422;2024-02-26T08:07:29;13.60;;;5.93;;
28802;SDS011;15949;55.656;37.422;2024-02-26T08:12:34;11.23;;;5.90;;
28802;SDS011;15949;55.656;37.422;2024-02-26T08:17:40;10.48;;;5.88;;
28802;SDS011;15949;55.656;37.422;2024-02-26T08:22:46;15.98;;;6.65;;
28802;SDS011;15949;55.656;37.422;2024-02-26T08:27:51;12.18;;;6.72;;
28802;SDS011;15949;55.656;37.422;2024-02-26T08:32:57;16.48;;;6.88;;
28802;SDS011;15949;55.656;37.422;2024-02-26T08:38:03;12.30;;;6.53;;
28802;SDS011;15949;55.656;37.422;2024-02-26T08:43:09;11.65;;;5.68;;
28802;SDS011;15949;55.656;37.422;2024-02-26T08:48:15;13.63;;;6.63;;
28802;SDS011;15949;55.656;37.422;2024-02-26T08:53:21;13.00;;;6.47;;
28802;SDS011;15949;55.656;37.422;2024-02-26T08:58:27;20.73;;;7.65;;
28802;SDS011;15949;55.656;37.422;2024-02-26T09:03:33;15.00;;;6.90;;
28802;SDS011;15949;55.656;37.422;2024-02-26T09:08:39;17.08;;;7.03;;
28802;SDS011;15949;55.656;37.422;2024-02-26T09:13:45;14.98;;;7.10;;
28802;SDS011;15949;55.656;37.422;2024-02-26T09:18:51;14.68;;;6.25;;
28802;SDS011;15949;55.656;37.422;2024-02-26T09:23:56;14.73;;;6.38;;
28802;SDS011;15949;55.656;37.422;2024-02-26T09:29:02;12.80;;;6.75;;
28802;SDS011;15949;55.656;37.422;2024-02-26T09:34:09;16.02;;;7.60;;
28802;SDS011;15949;55.656;37.422;2024-02-26T09:39:15;12.57;;;7.40;;
28802;SDS011;15949;55.656;37.422;2024-02-26T09:44:25;14.10;;;6.63;;
28802;SDS011;15949;55.656;37.422;2024-02-26T09:49:36;12.98;;;5.90;;
28802;SDS011;15949;55.656;37.422;2024-02-26T09:54:46;15.50;;;6.53;;
28802;SDS011;15949;55.656;37.422;2024-02-26T09:59:53;10.77;;;6.07;;
28802;SDS011;15949;55.656;37.422;2024-02-26T10:04:59;14.75;;;6.97;;
28802;SDS011;15949;55.656;37.422;2024-02-26T10:10:10;15.23;;;6.28;;
28802;SDS011;15949;55.656;37.422;2024-02-26T10:15:16;15.30;;;5.43;;
28802;SDS011;15949;55.656;37.422;2024-02-26T10:20:22;17.25;;;6.18;;
28802;SDS011;15949;55.656;37.422;2024-02-26T10:25:28;14.57;;;5.72;;
28802;SDS011;15949;55.656;37.422;2024-02-26T10:30:36;14.52;;;6.35;;
28802;SDS011;15949;55.656;37.422;2024-02-26T10:35:46;22.98;;;7.47;;
28802;SDS011;15949;55.656;37.422;2024-02-26T10:40:52;17.23;;;6.80;;
28802;SDS011;15949;55.656;37.422;2024-02-26T10:45:58;13.52;;;6.25;;
28802;SDS011;15949;55.656;37.422;2024-02-26T10:51:04;14.20;;;6.22;;
28802;SDS011;15949;55.656;37.422;2024-02-26T10:56:10;14.82;;;6.68;;
28802;SDS011;15949;55.656;37.422;2024-02-26T11:01:19;13.60;;;6.15;;
28802;SDS011;15949;55.656;37.422;2024-02-26T11:06:26;11.88;;;5.60;;
28802;SDS011;15949;55.656;37.422;2024-02-26T11:11:33;13.18;;;4.82;;
28802;SDS011;15949;55.656;37.422;2024-02-26T11:16:42;15.30;;;6.37;;
28802;SDS011;15949;55.656;37.422;2024-02-26T11:21:48;20.88;;;6.35;;
28802;SDS011;15949;55.656;37.422;2024-02-26T12:13:00;14.57;;;6.80;;
28802;SDS011;15949;55.656;37.422;2024-02-26T12:18:19;17.02;;;6.70;;
28802;SDS011;15949;55.656;37.422;2024-02-26T12:23:28;17.85;;;7.00;;
28802;SDS011;15949;55.656;37.422;2024-02-26T12:28:34;13.68;;;6.50;;
28802;SDS011;15949;55.656;37.422;2024-02-26T12:33:40;16.00;;;7.28;;
28802;SDS011;15949;55.656;37.422;2024-02-26T12:38:46;18.17;;;7.90;;
28802;SDS011;15949;55.656;37.422;2024-02-26T12:43:52;17.23;;;7.35;;
28802;SDS011;15949;55.656;37.422;2024-02-26T12:48:59;17.17;;;7.43;;
28802;SDS011;15949;55.656;37.422;2024-02-26T12:54:05;15.88;;;7.18;;
28802;SDS011;15949;55.656;37.422;2024-02-26T13:23:19;13.25;;;6.13;;
28802;SDS011;15949;55.656;37.422;2024-02-26T13:28:25;15.98;;;6.82;;
28802;SDS011;15949;55.656;37.422;2024-02-26T13:33:34;17.27;;;7.30;;
28802;SDS011;15949;55.656;37.422;2024-02-26T13:38:40;14.93;;;6.68;;
28802;SDS011;15949;55.656;37.422;2024-02-26T13:43:57;17.60;;;6.78;;
28802;SDS011;15949;55.656;37.422;2024-02-26T13:49:03;14.32;;;7.03;;
28802;SDS011;15949;55.656;37.422;2024-02-26T13:54:09;15.02;;;6.30;;
28802;SDS011;15949;55.656;37.422;2024-02-26T13:59:15;17.30;;;6.57;;
28802;SDS011;15949;55.656;37.422;2024-02-26T14:04:21;14.35;;;6.82;;
28802;SDS011;15949;55.656;37.422;2024-02-26T14:09:27;17.10;;;5.60;;
28802;SDS011;15949;55.656;37.422;2024-02-26T14:14:36;11.05;;;5.10;;
28802;SDS011;15949;55.656;37.422;2024-02-26T14:19:44;13.75;;;6.20;;
28802;SDS011;15949;55.656;37.422;2024-02-26T14:24:52;16.30;;;6.97;;
28802;SDS011;15949;55.656;37.422;2024-02-26T14:29:58;18.63;;;5.72;;
28802;SDS011;15949;55.656;37.422;2024-02-26T14:35:05;11.25;;;5.25;;
28802;SDS011;15949;55.656;37.422;2024-02-26T14:40:15;14.70;;;5.70;;
28802;SDS011;15949;55.656;37.422;2024-02-26T14:45:27;14.85;;;5.75;;
28802;SDS011;15949;55.656;37.422;2024-02-26T14:50:43;10.68;;;5.38;;
28802;SDS011;15949;55.656;37.422;2024-02-26T14:55:55;13.18;;;5.22;;
28802;SDS011;15949;55.656;37.422;2024-02-26T15:01:03;13.35;;;5.03;;
28802;SDS011;15949;55.656;37.422;2024-02-26T15:06:09;11.77;;;5.22;;
28802;SDS011;15949;55.656;37.422;2024-02-26T15:11:18;11.10;;;5.65;;
28802;SDS011;15949;55.656;37.422;2024-02-26T15:16:23;14.80;;;5.95;;
28802;SDS011;15949;55.656;37.422;2024-02-26T15:21:29;11.00;;;6.05;;
28802;SDS011;15949;55.656;37.422;2024-02-26T15:26:35;13.88;;;5.75;;
28802;SDS011;15949;55.656;37.422;2024-02-26T15:31:41;18.13;;;7.80;;
28802;SDS011;15949;55.656;37.422;2024-02-26T15:36:47;15.55;;;7.38;;
28802;SDS011;15949;55.656;37.422;2024-02-26T15:41:53;14.73;;;7.00;;
28802;SDS011;15949;55.656;37.422;2024-02-26T15:47:02;11.43;;;5.40;;
28802;SDS011;15949;55.656;37.422;2024-02-26T15:52:08;14.45;;;5.40;;
28802;SDS011;15949;55.656;37.422;2024-02-26T15:57:14;12.63;;;5.65;;
28802;SDS011;15949;55.656;37.422;2024-02-26T16:44:34;14.15;;;6.68;;
28802;SDS011;15949;55.656;37.422;2024-02-26T16:49:41;10.52;;;5.65;;
28802;SDS011;15949;55.656;37.422;2024-02-26T16:54:52;11.85;;;5.25;;
28802;SDS011;15949;55.656;37.422;2024-02-26T16:59:59;15.65;;;5.25;;
28802;SDS011;15949;55.656;37.422;2024-02-26T17:05:05;10.82;;;5.43;;
28802;SDS011;15949;55.656;37.422;2024-02-26T17:10:13;12.02;;;5.45;;
28802;SDS011;15949;55.656;37.422;2024-02-26T17:15:19;19.27;;;5.22;;
28802;SDS011;15949;55.656;37.422;2024-02-26T18:49:21;12.35;;;5.05;;
28802;SDS011;15949;55.656;37.422;2024-02-26T18:54:27;12.35;;;5.00;;
28802;SDS011;15949;55.656;37.422;2024-02-26T18:59:32;9.57;;;4.57;;
28802;SDS011;15949;55.656;37.422;2024-02-26T19:04:40;14.60;;;5.05;;
28802;SDS011;15949;55.656;37.422;2024-02-26T19:09:46;14.32;;;5.40;;
28802;SDS011;15949;55.656;37.422;2024-02-26T19:14:52;11.68;;;5.50;;
28802;SDS011;15949;55.656;37.422;2024-02-26T19:20:00;10.95;;;5.05;;
28802;SDS011;15949;55.656;37.422;2024-02-26T19:25:06;11.10;;;4.88;;
28802;SDS011;15949;55.656;37.422;2024-02-26T19:30:12;12.77;;;5.75;;
28802;SDS011;15949;55.656;37.422;2024-02-26T19:35:19;14.02;;;5.47;;
28802;SDS011;15949;55.656;37.422;2024-02-26T19:40:25;12.45;;;5.28;;
28802;SDS011;15949;55.656;37.422;2024-02-26T19:45:32;13.40;;;5.50;;
28802;SDS011;15949;55.656;37.422;2024-02-26T19:50:38;10.40;;;5.72;;
28802;SDS011;15949;55.656;37.422;2024-02-26T19:55:44;17.45;;;5.25;;
28802;SDS011;15949;55.656;37.422;2024-02-26T20:00:49;13.45;;;5.78;;
28802;SDS011;15949;55.656;37.422;2024-02-26T20:05:55;11.30;;;5.68;;
28802;SDS011;15949;55.656;37.422;2024-02-26T20:11:01;12.88;;;5.88;;
28802;SDS011;15949;55.656;37.422;2024-02-26T20:16:07;15.90;;;5.85;;
28802;SDS011;15949;55.656;37.422;2024-02-26T20:21:13;14.30;;;5.70;;
28802;SDS011;15949;55.656;37.422;2024-02-26T20:26:19;12.98;;;6.00;;
28802;SDS011;15949;55.656;37.422;2024-02-26T20:31:25;17.23;;;6.50;;
28802;SDS011;15949;55.656;37.422;2024-02-26T20:36:30;17.23;;;6.18;;
28802;SDS011;15949;55.656;37.422;2024-02-26T20:41:36;18.63;;;6.93;;
28802;SDS011;15949;55.656;37.422;2024-02-26T20:46:42;15.43;;;6.32;;
28802;SDS011;15949;55.656;37.422;2024-02-26T20:51:48;11.95;;;5.97;;
28802;SDS011;15949;55.656;37.422;2024-02-26T20:56:54;18.17;;;5.88;;
28802;SDS011;15949;55.656;37.422;2024-02-26T21:02:02;15.27;;;5.93;;
28802;SDS011;15949;55.656;37.422;2024-02-26T21:07:08;12.68;;;6.30;;
28802;SDS011;15949;55.656;37.422;2024-02-26T21:12:15;20.95;;;6.65;;
28802;SDS011;15949;55.656;37.422;2024-02-26T21:17:22;16.95;;;7.40;;
28802;SDS011;15949;55.656;37.422;2024-02-26T21:22:28;14.38;;;6.95;;
28802;SDS011;15949;55.656;37.422;2024-02-26T21:27:33;17.10;;;6.93;;
28802;SDS011;15949;55.656;37.422;2024-02-26T21:32:39;15.15;;;6.47;;
28802;SDS011;15949;55.656;37.422;2024-02-26T21:37:45;16.27;;;6.70;;
28802;SDS011;15949;55.656;37.422;2024-02-26T21:48:37;14.63;;;6.85;;
28802;SDS011;15949;55.656;37.422;2024-02-26T21:53:43;17.23;;;6.65;;
28802;SDS011;15949;55.656;37.422;2024-02-26T21:58:49;13.27;;;6.72;;
28802;SDS011;15949;55.656;37.422;2024-02-26T22:03:55;16.58;;;6.82;;
28802;SDS011;15949;55.656;37.422;2024-02-26T22:09:00;17.08;;;7.35;;
28802;SDS011;15949;55.656;37.422;2024-02-26T22:14:06;24.80;;;12.02;;
28802;SDS011;15949;55.656;37.422;2024-02-26T22:19:12;19.83;;;7.60;;
28802;SDS011;15949;55.656;37.422;2024-02-26T22:24:18;14.40;;;6.93;;
28802;SDS011;15949;55.656;37.422;2024-02-26T22:29:24;14.80;;;6.68;;
28802;SDS011;15949;55.656;37.422;2024-02-26T22:34:30;14.60;;;7.15;;
28802;SDS011;15949;55.656;37.422;2024-02-26T22:39:36;15.27;;;6.80;;
28802;SDS011;15949;55.656;37.422;2024-02-26T22:44:41;14.60;;;6.90;;
28802;SDS011;15949;55.656;37.422;2024-02-26T22:49:47;31.40;;;16.02;;
28802;SDS011;15949;55.656;37.422;2024-02-26T22:54:53;15.57;;;7.68;;
28802;SDS011;15949;55.656;37.422;2024-02-26T22:59:59;19.25;;;7.93;;
28802;SDS011;15949;55.656;37.422;2024-02-26T23:05:15;14.93;;;7.43;;
28802;SDS011;15949;55.656;37.422;2024-02-26T23:10:21;15.50;;;6.70;;
28802;SDS011;15949;55.656;37.422;2024-02-26T23:15:27;17.02;;;7.32;;
28802;SDS011;15949;55.656;37.422;2024-02-26T23:20:35;14.07;;;7.47;;
28802;SDS011;15949;55.656;37.422;2024-02-26T23:25:41;17.05;;;6.90;;
28802;SDS011;15949;55.656;37.422;2024-02-26T23:30:47;15.57;;;6.60;;
28802;SDS011;15949;55.656;37.422;2024-02-26T23:35:53;15.23;;;6.95;;
28802;SDS011;15949;55.656;37.422;2024-02-26T23:40:59;14.25;;;6.78;;
28802;SDS011;15949;55.656;37.422;2024-02-26T23:46:06;16.85;;;7.22;;
28802;SDS011;15949;55.656;37.422;2024-02-26T23:51:14;18.85;;;7.85;;
28802;SDS011;15949;55.656;37.422;2024-02-26T23:56:19;13.95;;;6.97;;
